Time;durP1;ratioP1;P1;durP2;ratioP2;P2;SDS_P1;SDS_P2;PMS_P1;PMS_P2;Temp;Humidity;BMP_temperature;BMP_pressure;BME280_temperature;BME280_humidity;BME280_pressure;Samples;Min_cycle;Max_cycle;Signal;HPM_P1;HPM_P2
2022/01/19 00:00:28;;;;;;;;;34.25;31.25;;;;;6.55;78.63;102231.00;5037889;28;45313;-62
2022/01/19 00:02:53;;;;;;;;;38.00;31.00;;;;;6.47;78.66;102221.38;5038073;28;45305;-63
2022/01/19 00:05:19;;;;;;;;;34.00;27.25;;;;;6.46;78.59;102225.75;5040347;28;46542;-61
2022/01/19 00:07:44;;;;;;;;;32.00;31.00;;;;;6.42;78.82;102216.16;5047742;28;45518;-63
2022/01/19 00:10:11;;;;;;;;;38.00;32.25;;;;;6.26;78.77;102197.78;5059243;28;45521;-62
2022/01/19 00:12:37;;;;;;;;;31.00;29.25;;;;;6.42;78.90;102226.63;5059514;28;45575;-61
2022/01/19 00:15:06;;;;;;;;;27.00;26.75;;;;;6.39;78.69;102217.00;5059113;28;45399;-62
2022/01/19 00:17:31;;;;;;;;;35.75;30.50;;;;;6.41;78.19;102212.66;5058685;28;45263;-62
2022/01/19 00:19:56;;;;;;;;;25.00;23.75;;;;;6.36;77.70;102198.69;5059038;28;45193;-61
2022/01/19 00:22:22;;;;;;;;;23.25;19.75;;;;;6.36;77.46;102188.25;5059328;28;45177;-63
2022/01/19 00:24:47;;;;;;;;;28.50;25.25;;;;;6.33;78.27;102171.66;5059556;28;45393;-61
2022/01/19 00:27:13;;;;;;;;;30.25;29.00;;;;;6.32;77.59;102173.41;5041812;28;45332;-60
2022/01/19 00:29:38;;;;;;;;;29.75;27.50;;;;;6.30;78.24;102162.09;5061459;28;45262;-60
2022/01/19 00:32:04;;;;;;;;;32.00;28.75;;;;;6.26;78.96;102153.34;5061180;28;45300;-63
2022/01/19 00:34:29;;;;;;;;;27.25;25.25;;;;;6.24;78.33;102147.25;5059524;28;45736;-65
2022/01/19 00:36:55;;;;;;;;;30.50;26.75;;;;;6.19;79.10;102135.91;5059219;28;45361;-62
2022/01/19 00:39:23;;;;;;;;;29.00;24.50;;;;;6.13;78.41;102126.34;5059050;28;45319;-62
2022/01/19 00:41:49;;;;;;;;;27.00;24.25;;;;;6.17;78.91;102150.72;5059098;28;45355;-64
2022/01/19 00:44:14;;;;;;;;;29.75;26.25;;;;;6.17;78.75;102161.16;5040538;28;47146;-62
2022/01/19 00:46:39;;;;;;;;;37.75;27.25;;;;;6.20;79.18;102171.63;5058138;28;52715;-63
2022/01/19 00:49:05;;;;;;;;;48.25;35.25;;;;;6.23;78.38;102163.78;5059748;28;45352;-61
2022/01/19 00:51:30;;;;;;;;;31.50;26.50;;;;;6.23;78.85;102161.19;5058980;28;45574;-64
2022/01/19 00:53:56;;;;;;;;;30.75;25.50;;;;;6.30;78.99;102169.94;5058811;28;45254;-61
2022/01/19 00:56:21;;;;;;;;;35.50;30.25;;;;;6.31;78.89;102179.53;5059560;28;45236;-61
2022/01/19 00:58:46;;;;;;;;;37.25;29.50;;;;;6.33;78.82;102180.41;5059041;28;45176;-61
2022/01/19 01:01:12;;;;;;;;;27.75;23.50;;;;;6.32;78.84;102172.53;5058960;28;45475;-66
2022/01/19 01:03:37;;;;;;;;;28.75;26.50;;;;;6.28;77.21;102156.84;5058138;28;46629;-62
2022/01/19 01:06:02;;;;;;;;;31.25;27.50;;;;;6.26;77.36;102155.97;5058630;28;45219;-63
2022/01/19 01:08:28;;;;;;;;;25.75;24.50;;;;;6.23;77.40;102150.72;5058994;28;45330;-61
2022/01/19 01:10:53;;;;;;;;;32.00;26.00;;;;;6.27;77.56;102151.63;5059224;28;45596;-63
2022/01/19 01:16:00;;;;;;;;;26.25;26.00;;;;;6.27;76.82;102131.56;5057310;28;45353;-63
2022/01/19 01:18:27;;;;;;;;;28.25;22.25;;;;;6.33;76.64;102129.84;5039766;28;45267;-62
2022/01/19 01:20:54;;;;;;;;;28.50;24.50;;;;;6.35;76.33;102123.78;5058425;28;45238;-62
2022/01/19 01:23:22;;;;;;;;;30.00;24.25;;;;;6.38;77.28;102110.72;5058051;28;46266;-62
2022/01/19 01:25:49;;;;;;;;;30.00;25.75;;;;;6.40;76.95;102110.72;5040572;28;45428;-63
2022/01/19 01:28:14;;;;;;;;;26.75;24.25;;;;;6.19;76.16;102069.72;5058053;28;45336;-62
2022/01/19 01:30:41;;;;;;;;;26.25;21.00;;;;;6.41;76.79;102117.69;5057809;28;45320;-64
2022/01/19 01:33:07;;;;;;;;;28.25;27.50;;;;;6.37;76.10;102110.72;5058411;28;46357;-61
2022/01/19 01:35:32;;;;;;;;;26.25;22.00;;;;;6.43;76.26;102129.88;5060441;28;45443;-64
2022/01/19 01:37:58;;;;;;;;;28.00;22.75;;;;;6.40;75.86;102134.25;5057807;28;45381;-63
2022/01/19 01:40:25;;;;;;;;;27.00;22.50;;;;;6.32;75.86;102129.00;5040986;28;45439;-62
2022/01/19 01:42:56;;;;;;;;;28.50;25.50;;;;;6.37;75.38;102136.84;5058383;28;46566;-62
2022/01/19 01:45:27;;;;;;;;;31.25;25.50;;;;;6.34;75.37;102129.88;5060361;28;45379;-61
2022/01/19 01:48:03;;;;;;;;;23.25;21.75;;;;;6.33;75.60;102132.47;5063943;28;45354;-64
2022/01/19 01:53:27;;;;;;;;;25.00;22.75;;;;;6.35;75.27;102123.78;5057389;28;45364;-62
2022/01/19 01:56:10;;;;;;;;;24.50;21.50;;;;;6.32;75.23;102122.88;5057492;28;45340;-60
2022/01/19 01:58:38;;;;;;;;;32.00;26.00;;;;;6.31;75.03;102110.69;5057507;28;45328;-62
2022/01/19 02:01:05;;;;;;;;;27.00;23.75;;;;;6.29;75.48;102108.06;5058272;28;45253;-61
2022/01/19 02:03:37;;;;;;;;;29.00;25.00;;;;;6.27;75.74;102097.59;5055057;28;48015;-64
2022/01/19 02:08:57;;;;;;;;;28.50;24.25;;;;;6.26;74.71;102090.63;5036873;28;45476;-62
2022/01/19 02:15:48;;;;;;;;;29.50;26.25;;;;;6.26;75.67;102085.41;5035972;28;45389;-64
2022/01/19 02:22:50;;;;;;;;;27.25;26.00;;;;;6.29;74.18;102067.13;5023138;28;45274;-62
2022/01/19 02:25:17;;;;;;;;;23.00;21.00;;;;;6.30;74.58;102057.56;5038777;28;46092;-62
2022/01/19 02:31:04;;;;;;;;;28.50;23.25;;;;;6.31;75.14;102042.72;5037087;28;45414;-61
2022/01/19 02:41:27;;;;;;;;;30.50;27.50;;;;;6.35;74.71;102021.84;5037386;28;45294;-64
2022/01/19 02:43:52;;;;;;;;;34.25;28.00;;;;;6.31;74.68;102011.38;5036741;28;45587;-61
2022/01/19 02:49:14;;;;;;;;;30.25;26.00;;;;;6.30;74.89;102005.28;5036240;28;45355;-62
2022/01/19 02:51:40;;;;;;;;;29.00;27.00;;;;;6.29;75.36;101993.94;5036870;28;45353;-63
2022/01/19 02:54:06;;;;;;;;;31.50;28.00;;;;;6.33;75.03;101999.19;5036451;28;45582;-60
2022/01/19 02:56:35;;;;;;;;;31.75;29.25;;;;;6.37;74.69;101998.34;5040018;28;47007;-61
2022/01/19 02:59:14;;;;;;;;;30.25;25.00;;;;;6.37;75.39;101990.50;5042504;28;45223;-62
2022/01/19 03:09:46;;;;;;;;;25.00;23.50;;;;;6.29;75.00;101986.09;5037430;28;45979;-60
2022/01/19 03:12:12;;;;;;;;;30.00;26.75;;;;;6.24;74.86;101977.41;5034471;28;45410;-62
2022/01/19 03:14:38;;;;;;;;;29.75;24.50;;;;;6.29;74.94;101987.88;5038274;28;45506;-63
2022/01/19 03:17:04;;;;;;;;;28.75;27.25;;;;;6.29;74.39;101985.25;5035601;28;46250;-60
2022/01/19 03:19:31;;;;;;;;;33.00;27.75;;;;;6.28;74.60;101980.91;5036218;28;45239;-62
2022/01/19 03:21:57;;;;;;;;;30.75;27.00;;;;;6.30;74.41;101979.16;5036396;28;45281;-61
2022/01/19 03:24:23;;;;;;;;;33.50;29.00;;;;;6.31;74.60;101980.91;5037051;28;45390;-62
2022/01/19 03:26:48;;;;;;;;;34.00;29.75;;;;;6.27;75.21;101969.56;5037376;28;45194;-62
2022/01/19 03:29:14;;;;;;;;;27.25;23.25;;;;;6.31;74.29;101970.44;5036642;28;45380;-62
2022/01/19 03:31:39;;;;;;;;;33.25;27.50;;;;;6.31;74.60;101969.56;5038414;28;45402;-63
2022/01/19 03:34:06;;;;;;;;;28.00;26.00;;;;;6.29;75.31;101972.19;5036233;28;45309;-63
2022/01/19 03:36:32;;;;;;;;;28.50;26.00;;;;;6.25;74.08;101958.22;5035662;28;46660;-62
2022/01/19 03:38:58;;;;;;;;;33.25;28.50;;;;;6.27;74.91;101974.78;5036986;28;45429;-62
2022/01/19 03:41:24;;;;;;;;;34.00;27.00;;;;;6.25;74.51;101960.84;5040051;28;45386;-62
2022/01/19 03:43:49;;;;;;;;;33.50;30.25;;;;;6.29;74.89;101969.56;5039500;28;45309;-62
2022/01/19 03:46:16;;;;;;;;;31.50;26.75;;;;;6.32;74.30;101968.69;5040221;28;45230;-61
2022/01/19 03:51:18;;;;;;;;;29.00;23.25;;;;;6.33;74.25;101957.34;5038966;28;45183;-61
2022/01/19 03:53:43;;;;;;;;;28.75;27.25;;;;;6.34;73.96;101972.16;5039582;28;45596;-61
2022/01/19 03:56:09;;;;;;;;;35.00;31.25;;;;;6.34;74.96;101964.31;5038573;28;45853;-61
2022/01/19 03:58:36;;;;;;;;;27.75;24.50;;;;;6.33;73.90;101953.03;5039130;28;45552;-62
2022/01/19 04:01:03;;;;;;;;;30.00;28.25;;;;;6.33;74.17;101946.91;5039408;28;45320;-61
2022/01/19 04:06:07;;;;;;;;;29.25;28.75;;;;;6.29;74.62;101930.38;5042799;28;45371;-62
2022/01/19 04:08:32;;;;;;;;;33.00;28.50;;;;;6.34;74.69;101938.19;5043753;28;44712;-62
2022/01/19 04:10:57;;;;;;;;;34.75;25.25;;;;;6.36;74.81;101936.44;5040709;28;45238;-62
2022/01/19 04:15:54;;;;;;;;;30.75;27.00;;;;;6.27;75.26;101917.28;5045209;28;45195;-62
2022/01/19 04:18:20;;;;;;;;;32.75;28.00;;;;;6.29;74.29;101923.38;5030599;28;45305;-62
2022/01/19 04:20:49;;;;;;;;;30.50;27.75;;;;;6.33;74.48;101924.28;5045883;28;45309;-61
2022/01/19 04:23:17;;;;;;;;;31.50;27.00;;;;;6.37;74.23;101933.84;5043956;28;45532;-62
2022/01/19 04:25:44;;;;;;;;;29.00;25.75;;;;;6.37;74.71;101930.38;5041735;28;45387;-61
2022/01/19 04:28:10;;;;;;;;;33.25;29.25;;;;;6.34;75.14;101931.25;5042423;28;45240;-61
2022/01/19 04:30:36;;;;;;;;;34.00;29.25;;;;;6.33;74.43;101934.72;5047432;28;45346;-59
2022/01/19 04:33:09;;;;;;;;;29.50;28.50;;;;;6.34;74.93;101936.47;5045836;28;45518;-61
2022/01/19 04:35:54;;;;;;;;;35.75;27.75;;;;;6.34;74.94;101935.56;5021500;28;46208;-60
2022/01/19 05:07:57;;;;;;;;;33.50;28.50;;;;;6.41;74.98;101930.34;5041095;28;45214;-62
2022/01/19 05:13:35;;;;;;;;;35.50;30.25;;;;;6.47;74.29;101934.72;5039493;28;45341;-60
2022/01/19 05:16:00;;;;;;;;;38.25;30.75;;;;;6.47;74.76;101928.59;5039115;28;45801;-65
2022/01/19 05:18:26;;;;;;;;;36.25;32.25;;;;;6.50;74.60;101928.59;5038597;28;45247;-63
2022/01/19 05:20:51;;;;;;;;;31.75;30.00;;;;;6.50;74.44;101926.88;5042007;28;45395;-63
2022/01/19 05:23:17;;;;;;;;;37.00;30.50;;;;;6.53;74.95;101926.88;5040921;28;45330;-62
2022/01/19 05:25:44;;;;;;;;;33.75;31.25;;;;;6.56;75.23;101929.47;5040230;28;45284;-64
2022/01/19 05:28:10;;;;;;;;;36.50;32.00;;;;;6.57;75.45;101917.25;5039080;28;46150;-62
2022/01/19 05:30:35;;;;;;;;;29.75;27.00;;;;;6.55;74.95;101922.50;5037700;28;45418;-60
2022/01/19 05:33:01;;;;;;;;;34.50;31.25;;;;;6.39;74.45;101892.91;5038073;28;45257;-62
2022/01/19 05:35:27;;;;;;;;;36.25;29.25;;;;;6.55;73.90;101922.50;5019909;28;45284;-62
2022/01/19 05:37:53;;;;;;;;;33.00;30.75;;;;;6.54;74.90;101919.88;5039546;28;46202;-60
2022/01/19 05:40:19;;;;;;;;;32.75;30.00;;;;;6.53;75.00;101920.75;5037653;28;45443;-62
2022/01/19 05:42:47;;;;;;;;;38.00;32.25;;;;;6.53;74.72;101920.75;5037654;28;45476;-62
2022/01/19 05:45:13;;;;;;;;;40.00;32.50;;;;;6.54;75.21;101923.38;5038411;28;45301;-64
2022/01/19 05:47:38;;;;;;;;;34.50;32.00;;;;;6.53;75.17;101918.13;5040162;28;45344;-62
2022/01/19 05:50:04;;;;;;;;;30.00;27.50;;;;;6.48;75.12;101920.78;5037312;28;45344;-63
2022/01/19 05:52:29;;;;;;;;;43.75;29.75;;;;;6.41;75.53;101919.91;5037760;28;45382;-63
2022/01/19 05:54:54;;;;;;;;;29.25;27.25;;;;;6.43;75.48;101925.16;5037729;28;45379;-62
2022/01/19 05:57:20;;;;;;;;;31.00;27.25;;;;;6.41;75.67;101924.28;5035748;28;46001;-62
2022/01/19 05:59:46;;;;;;;;;30.00;27.75;;;;;6.41;76.36;101929.50;5036077;28;45616;-62
2022/01/19 06:02:12;;;;;;;;;32.25;26.25;;;;;6.39;75.58;101926.03;5042525;28;45359;-63
2022/01/19 06:04:37;;;;;;;;;34.00;27.25;;;;;6.26;76.57;101912.09;5041845;28;45518;-62
2022/01/19 06:07:03;;;;;;;;;33.25;29.00;;;;;6.29;76.21;101923.38;5038544;28;46611;-62
2022/01/19 06:09:37;;;;;;;;;27.75;23.25;;;;;6.21;76.81;101916.44;5036612;28;45918;-61
2022/01/19 06:12:09;;;;;;;;;30.50;30.00;;;;;6.21;76.24;101929.50;5038321;28;45359;-61
2022/01/19 06:14:36;;;;;;;;;33.75;31.00;;;;;6.18;76.88;101921.66;5040216;28;45373;-60
2022/01/19 06:17:03;;;;;;;;;30.75;28.25;;;;;6.16;77.56;101912.97;5036170;28;45454;-61
2022/01/19 06:19:29;;;;;;;;;29.50;27.25;;;;;6.18;77.15;101919.91;5036383;28;45451;-62
2022/01/19 06:21:54;;;;;;;;;33.25;30.00;;;;;6.16;76.83;101918.19;5036505;28;45458;-63
2022/01/19 06:24:20;;;;;;;;;27.00;22.25;;;;;6.12;77.37;101917.31;5041348;28;45533;-62
2022/01/19 06:26:45;;;;;;;;;40.75;31.25;;;;;6.16;77.52;101911.19;5039808;28;46219;-62
2022/01/19 06:29:11;;;;;;;;;36.00;32.50;;;;;6.17;77.12;101914.69;5044262;28;45273;-63
2022/01/19 06:31:36;;;;;;;;;38.25;31.50;;;;;6.13;77.57;101917.31;5043787;28;45236;-60
2022/01/19 06:34:01;;;;;;;;;29.00;28.50;;;;;6.13;78.14;101912.09;5040672;28;45716;-62
2022/01/19 06:36:27;;;;;;;;;39.50;32.00;;;;;6.19;77.46;101908.59;5037932;28;45343;-61
2022/01/19 06:38:52;;;;;;;;;38.75;31.25;;;;;6.19;77.23;101903.38;5018910;28;45560;-61
2022/01/19 06:41:18;;;;;;;;;40.25;33.50;;;;;6.20;78.46;101905.09;5034705;28;45225;-60
2022/01/19 06:43:43;;;;;;;;;43.25;32.00;;;;;6.18;78.20;101901.63;5036337;28;45313;-59
2022/01/19 06:46:08;;;;;;;;;43.00;35.25;;;;;6.25;77.77;101908.59;5036210;28;45847;-62
2022/01/19 06:48:34;;;;;;;;;35.00;32.50;;;;;6.32;77.86;101905.97;5036331;28;45287;-60
2022/01/19 06:50:59;;;;;;;;;38.75;34.50;;;;;6.33;78.29;101905.09;5036532;28;45766;-62
2022/01/19 06:53:26;;;;;;;;;39.50;33.50;;;;;6.34;77.42;101905.09;5018542;28;45435;-62
2022/01/19 06:55:51;;;;;;;;;47.00;35.00;;;;;6.14;77.58;101876.38;5035795;28;46354;-63
2022/01/19 06:58:17;;;;;;;;;41.25;34.75;;;;;6.31;77.03;101909.44;5036767;28;45429;-61
2022/01/19 07:00:42;;;;;;;;;47.25;35.75;;;;;6.27;77.27;101905.97;5038952;28;45357;-63
2022/01/19 07:03:09;;;;;;;;;48.50;37.50;;;;;6.20;77.93;101901.63;5019145;28;45394;-59
2022/01/19 07:05:34;;;;;;;;;51.50;37.25;;;;;6.20;77.92;101909.47;5035429;28;46189;-63
2022/01/19 07:07:59;;;;;;;;;46.50;35.00;;;;;6.16;78.30;101908.59;5035658;28;45226;-63
2022/01/19 07:10:25;;;;;;;;;45.50;36.75;;;;;6.13;79.19;101905.97;5017638;28;45289;-62
2022/01/19 07:12:50;;;;;;;;;50.25;39.00;;;;;6.09;79.21;101904.25;5035517;28;45482;-63
2022/01/19 07:15:16;;;;;;;;;48.00;37.25;;;;;6.07;78.96;101901.66;5035871;28;46202;-63
2022/01/19 07:17:42;;;;;;;;;42.25;35.75;;;;;6.04;79.13;101905.97;5037019;28;45313;-62
2022/01/19 07:20:08;;;;;;;;;47.25;37.00;;;;;6.05;79.50;101906.00;5037425;28;45262;-63
2022/01/19 07:22:34;;;;;;;;;46.25;37.50;;;;;6.06;79.50;101907.75;5036649;28;45546;-62
2022/01/19 07:24:59;;;;;;;;;44.25;35.25;;;;;6.08;79.45;101911.22;5039284;28;46876;-63
2022/01/19 07:27:25;;;;;;;;;46.25;36.25;;;;;6.10;79.85;101908.59;5041133;28;45394;-63
2022/01/19 07:29:51;;;;;;;;;46.50;36.50;;;;;6.11;79.49;101912.94;5037823;28;45179;-62
2022/01/19 07:32:16;;;;;;;;;49.25;39.50;;;;;6.12;80.06;101914.69;5036739;28;45575;-62
2022/01/19 07:34:42;;;;;;;;;39.25;35.50;;;;;6.09;80.28;101914.69;5036496;28;46302;-64
2022/01/19 07:37:07;;;;;;;;;45.25;38.75;;;;;6.04;79.95;101922.53;5036142;28;45346;-63
2022/01/19 07:39:33;;;;;;;;;49.75;41.00;;;;;5.98;80.30;101915.53;5036999;28;45270;-63
2022/01/19 07:41:59;;;;;;;;;47.25;34.75;;;;;5.96;81.14;101921.63;5038402;28;45601;-64
2022/01/19 07:44:24;;;;;;;;;50.00;41.50;;;;;5.94;80.98;101926.00;5037656;28;45944;-61
2022/01/19 07:46:51;;;;;;;;;47.25;34.25;;;;;5.84;81.20;101905.09;5036439;28;45313;-64
2022/01/19 07:49:17;;;;;;;;;43.00;38.50;;;;;5.90;80.85;101917.25;5002942;28;45297;-63
2022/01/19 07:51:42;;;;;;;;;53.75;42.50;;;;;5.89;80.77;101914.66;5036294;28;45579;-63
2022/01/19 07:54:07;;;;;;;;;47.25;38.00;;;;;5.90;82.04;101911.19;5035101;28;46009;-62
2022/01/19 07:56:33;;;;;;;;;50.25;39.50;;;;;5.95;81.63;101920.75;5036477;28;45217;-63
2022/01/19 07:58:58;;;;;;;;;52.50;40.75;;;;;5.92;82.53;101904.22;5036721;28;45275;-65
2022/01/19 08:01:24;;;;;;;;;48.00;40.50;;;;;6.03;81.64;101915.56;5032689;28;45390;-63
2022/01/19 08:03:49;;;;;;;;;52.00;40.00;;;;;6.09;81.65;101922.53;5033706;28;45832;-63
2022/01/19 08:06:14;;;;;;;;;47.75;38.25;;;;;6.19;81.69;101920.78;5034332;28;45438;-64
2022/01/19 08:08:40;;;;;;;;;47.00;37.50;;;;;6.20;81.17;101910.31;5035318;28;45560;-63
2022/01/19 08:11:05;;;;;;;;;51.00;39.75;;;;;6.22;81.27;101910.34;5035105;28;45538;-63
2022/01/19 08:13:30;;;;;;;;;59.50;42.50;;;;;6.23;81.03;101912.09;5000807;28;46359;-62
2022/01/19 08:15:56;;;;;;;;;47.75;38.00;;;;;6.32;81.34;101924.25;5036072;28;45374;-63
2022/01/19 08:18:21;;;;;;;;;50.50;37.75;;;;;6.36;80.98;101920.75;5048868;28;45593;-62
2022/01/19 08:20:47;;;;;;;;;42.50;35.25;;;;;6.39;80.42;101924.25;5052465;28;45585;-63
2022/01/19 08:23:12;;;;;;;;;48.00;37.50;;;;;6.42;80.56;101929.47;5052767;28;45463;-64
2022/01/19 08:25:38;;;;;;;;;47.25;37.25;;;;;6.45;81.13;101930.34;5054402;28;45401;-62
2022/01/19 08:28:04;;;;;;;;;39.75;32.00;;;;;6.46;80.13;101927.75;5055820;28;45598;-61
2022/01/19 08:30:30;;;;;;;;;46.00;36.75;;;;;6.46;80.36;101924.25;5055977;28;45448;-61
2022/01/19 08:32:55;;;;;;;;;46.00;35.25;;;;;6.49;81.01;101938.22;5054648;28;45300;-62
2022/01/19 08:35:21;;;;;;;;;41.25;34.00;;;;;6.50;80.09;101939.94;5028876;28;45421;-61
2022/01/19 08:37:47;;;;;;;;;45.50;35.25;;;;;6.49;80.49;101937.31;5055890;28;45383;-61
2022/01/19 08:40:13;;;;;;;;;44.50;35.50;;;;;6.47;80.25;101941.69;5056907;28;45437;-63
2022/01/19 08:42:38;;;;;;;;;51.75;37.25;;;;;6.48;80.50;101946.91;5055575;28;46087;-62
2022/01/19 08:45:07;;;;;;;;;37.75;34.25;;;;;6.47;80.57;101947.78;5056246;28;45400;-62
2022/01/19 08:47:34;;;;;;;;;44.25;33.50;;;;;6.46;80.05;101942.56;5056204;28;45454;-61
2022/01/19 08:50:00;;;;;;;;;42.00;34.75;;;;;6.46;80.14;101947.78;5056696;28;45588;-63
2022/01/19 08:52:25;;;;;;;;;42.75;34.75;;;;;6.45;80.80;101956.50;5054508;28;45498;-62
2022/01/19 08:54:51;;;;;;;;;46.25;37.75;;;;;6.39;80.61;101950.41;5055285;28;45492;-63
2022/01/19 08:57:18;;;;;;;;;46.25;34.25;;;;;6.42;80.79;101958.25;5055897;28;45490;-62
2022/01/19 08:59:44;;;;;;;;;45.50;35.75;;;;;6.46;79.92;101964.34;5055349;28;45599;-63
2022/01/19 09:02:10;;;;;;;;;39.25;33.50;;;;;6.49;81.13;101961.72;5055408;28;45667;-63
2022/01/19 09:04:35;;;;;;;;;47.50;35.50;;;;;6.53;80.46;101960.84;5037051;28;45529;-61
2022/01/19 09:07:01;;;;;;;;;37.00;33.00;;;;;6.55;80.81;101968.69;5055052;28;45451;-61
2022/01/19 09:09:27;;;;;;;;;34.50;30.25;;;;;6.59;80.41;101967.81;5056058;28;45490;-62
2022/01/19 09:11:52;;;;;;;;;45.75;35.00;;;;;6.60;80.36;101966.06;5051478;28;46085;-63
2022/01/19 09:14:17;;;;;;;;;40.00;31.25;;;;;6.65;80.25;101966.94;5058541;28;45439;-62
2022/01/19 09:16:44;;;;;;;;;38.75;32.75;;;;;6.67;79.92;101973.91;5058255;28;45419;-64
2022/01/19 09:19:12;;;;;;;;;43.50;34.25;;;;;6.66;80.30;101966.91;5056106;28;45431;-63
2022/01/19 09:21:38;;;;;;;;;44.75;37.00;;;;;6.69;79.75;101964.31;5057795;28;46362;-62
2022/01/19 09:24:04;;;;;;;;;46.00;37.00;;;;;6.69;79.89;101971.28;5058652;28;45339;-62
2022/01/19 09:26:30;;;;;;;;;49.00;34.25;;;;;6.71;80.19;101967.78;5058110;28;45288;-62
2022/01/19 09:28:56;;;;;;;;;40.00;35.00;;;;;6.73;79.68;101975.63;5058083;28;45348;-60
2022/01/19 09:31:21;;;;;;;;;46.00;34.25;;;;;6.73;79.83;101973.03;5057319;28;45437;-62
2022/01/19 09:33:54;;;;;;;;;48.75;35.50;;;;;6.79;79.24;101982.59;5057875;28;45351;-61
2022/01/19 09:36:32;;;;;;;;;45.50;38.25;;;;;6.77;79.62;101980.00;5057165;28;45365;-60
2022/01/19 09:38:58;;;;;;;;;44.25;34.00;;;;;6.77;78.58;101973.88;5057107;28;45446;-66
2022/01/19 09:41:23;;;;;;;;;46.75;35.75;;;;;6.77;79.40;101979.09;5057004;28;46219;-62
2022/01/19 09:43:49;;;;;;;;;42.00;34.00;;;;;6.74;79.08;101982.63;5057628;28;45437;-62
2022/01/19 09:46:15;;;;;;;;;42.50;33.00;;;;;6.76;79.14;101979.97;5039131;28;45368;-65
2022/01/19 09:48:40;;;;;;;;;43.25;34.00;;;;;6.78;79.29;101989.56;5057906;28;45685;-65
2022/01/19 09:51:06;;;;;;;;;50.75;35.00;;;;;6.79;79.23;101983.47;5063650;28;46352;-61
2022/01/19 09:53:32;;;;;;;;;52.50;35.75;;;;;6.77;79.91;101980.00;5060231;28;45339;-62
2022/01/19 09:55:58;;;;;;;;;48.50;35.00;;;;;6.79;79.33;101980.84;5057423;28;45350;-60
2022/01/19 09:58:24;;;;;;;;;53.00;40.50;;;;;6.81;79.88;101973.00;5057357;28;45271;-62
2022/01/19 10:00:50;;;;;;;;;49.50;37.25;;;;;6.84;79.45;101981.72;5058039;28;46655;-62
2022/01/19 10:03:24;;;;;;;;;46.25;33.25;;;;;6.86;78.31;101972.13;5057777;28;45375;-61
2022/01/19 10:05:54;;;;;;;;;42.00;33.75;;;;;6.88;78.70;101969.50;5039439;28;45227;-61
2022/01/19 10:08:40;;;;;;;;;38.50;34.25;;;;;6.89;78.92;101967.75;5040542;28;45342;-63
2022/01/19 10:11:13;;;;;;;;;40.75;34.75;;;;;6.71;78.06;101935.56;5044206;28;45976;-64
2022/01/19 10:17:09;;;;;;;;;44.25;35.25;;;;;6.98;77.35;101976.47;5037840;28;45345;-66
2022/01/19 10:19:48;;;;;;;;;34.75;30.50;;;;;6.99;77.78;101975.59;5035614;28;45539;-64
2022/01/19 10:22:22;;;;;;;;;39.75;33.25;;;;;6.97;77.80;101976.47;5037947;28;46274;-66
2022/01/19 10:25:02;;;;;;;;;43.25;35.00;;;;;6.94;77.64;101969.50;5037449;28;45285;-64
2022/01/19 10:27:30;;;;;;;;;45.50;36.50;;;;;6.98;77.62;101966.00;5037990;28;45253;-62
2022/01/19 10:30:12;;;;;;;;;50.75;38.00;;;;;7.00;78.05;101961.63;5038278;28;45511;-63
2022/01/19 10:32:41;;;;;;;;;48.75;37.50;;;;;7.04;77.65;101957.25;5036656;28;45262;-66
2022/01/19 10:35:27;;;;;;;;;53.00;38.75;;;;;7.14;77.82;101972.03;5018377;28;45482;-65
2022/01/19 10:38:15;;;;;;;;;49.25;40.00;;;;;7.18;77.15;101969.41;5037802;28;45443;-65
2022/01/19 10:40:45;;;;;;;;;56.50;41.00;;;;;7.23;77.21;101965.03;5038332;28;45277;-65
2022/01/19 10:43:27;;;;;;;;;39.75;34.00;;;;;7.26;77.43;101967.63;5036677;28;47744;-65
2022/01/19 10:45:54;;;;;;;;;52.25;37.00;;;;;7.28;77.39;101965.88;5037289;28;45397;-65
2022/01/19 10:48:36;;;;;;;;;51.00;38.50;;;;;7.31;77.31;101969.38;5037778;28;45196;-64
2022/01/19 10:51:21;;;;;;;;;46.50;38.00;;;;;7.12;76.71;101939.78;5022824;28;45281;-63
2022/01/19 10:54:04;;;;;;;;;47.00;34.25;;;;;7.30;76.61;101949.31;5036654;28;47182;-64
2022/01/19 10:56:30;;;;;;;;;49.00;39.25;;;;;7.36;76.67;101951.00;5020733;28;46175;-64
2022/01/19 10:59:02;;;;;;;;;49.00;40.00;;;;;7.41;76.65;101951.84;5037651;28;45285;-66
2022/01/19 11:01:35;;;;;;;;;51.50;38.50;;;;;7.35;76.26;101940.56;5019419;28;45580;-65
2022/01/19 11:04:38;;;;;;;;;55.75;41.00;;;;;7.39;76.54;101951.00;5036991;28;45539;-64
2022/01/19 11:07:08;;;;;;;;;54.25;42.00;;;;;7.38;76.96;101945.78;4975380;28;45306;-65
2022/01/19 11:09:43;;;;;;;;;51.50;40.00;;;;;7.37;77.30;101944.03;5026612;28;45421;-65
2022/01/19 11:12:13;;;;;;;;;51.75;40.50;;;;;7.36;77.14;101937.91;5037470;28;45415;-64
2022/01/19 11:14:40;;;;;;;;;52.25;42.25;;;;;7.16;76.99;101904.88;5035279;28;47055;-64
2022/01/19 11:17:07;;;;;;;;;59.50;46.00;;;;;7.37;76.61;101941.41;5037672;28;45878;-62
2022/01/19 11:19:40;;;;;;;;;52.50;41.00;;;;;7.35;76.97;101930.94;5037608;28;45418;-62
2022/01/19 11:22:14;;;;;;;;;58.50;46.25;;;;;7.36;76.47;101931.81;5037986;28;45372;-64
2022/01/19 11:25:04;;;;;;;;;60.75;47.75;;;;;7.34;77.49;101934.44;5037613;28;45559;-64
2022/01/19 11:27:45;;;;;;;;;58.00;46.25;;;;;7.35;76.75;101932.72;5036924;28;45431;-64
2022/01/19 11:30:12;;;;;;;;;67.25;52.25;;;;;7.36;77.66;101932.69;5037662;28;45316;-65
2022/01/19 11:32:38;;;;;;;;;64.75;50.50;;;;;7.34;77.75;101923.13;5035363;28;45616;-68
2022/01/19 11:35:05;;;;;;;;;62.75;49.00;;;;;7.31;77.26;101922.25;5036701;28;45940;-66
2022/01/19 11:37:39;;;;;;;;;60.25;47.00;;;;;7.34;77.30;101917.88;5019018;28;45515;-64
2022/01/19 11:40:09;;;;;;;;;65.50;50.00;;;;;7.37;77.57;101929.19;5019202;28;45541;-66
2022/01/19 11:42:35;;;;;;;;;65.75;50.25;;;;;7.37;77.27;101912.63;5038073;28;45575;-65
2022/01/19 11:45:01;;;;;;;;;59.25;47.75;;;;;7.39;77.67;101919.56;5036511;28;45300;-64
2022/01/19 11:47:31;;;;;;;;;64.00;47.00;;;;;7.32;77.06;101912.63;5036302;28;45978;-62
2022/01/19 11:50:15;;;;;;;;;59.50;46.50;;;;;7.27;77.97;101910.06;5037020;28;45331;-62
2022/01/19 11:52:43;;;;;;;;;62.25;48.75;;;;;7.24;77.36;101898.72;5036644;28;45207;-62
2022/01/19 11:55:15;;;;;;;;;52.50;44.75;;;;;7.25;77.88;101905.69;5035660;28;46136;-64
2022/01/19 11:57:41;;;;;;;;;57.25;46.00;;;;;7.21;78.41;101899.63;5035933;28;45386;-64
2022/01/19 12:00:14;;;;;;;;;63.25;46.50;;;;;7.21;78.25;101894.38;5037093;28;45324;-64
2022/01/19 12:02:46;;;;;;;;;62.00;46.00;;;;;7.23;77.84;101892.63;5039665;28;45433;-65
2022/01/19 12:05:17;;;;;;;;;61.00;46.50;;;;;7.22;77.72;101896.13;5021595;28;47547;-63
2022/01/19 12:07:53;;;;;;;;;60.50;46.50;;;;;7.26;78.95;101895.22;5040009;28;45715;-62
2022/01/19 12:10:39;;;;;;;;;59.50;46.00;;;;;7.29;78.21;101895.22;5038494;28;45259;-65
2022/01/19 12:13:43;;;;;;;;;56.75;43.00;;;;;7.28;77.88;101889.97;5041147;28;45197;-64
2022/01/19 12:18:57;;;;;;;;;54.50;43.25;;;;;7.33;78.06;101882.97;5043474;28;45269;-66
2022/01/19 12:21:32;;;;;;;;;51.25;39.50;;;;;7.36;77.81;101885.56;5042043;28;45824;-63
2022/01/19 12:24:16;;;;;;;;;54.25;40.50;;;;;7.36;77.84;101888.19;5042042;28;45348;-62
2022/01/19 12:26:54;;;;;;;;;53.25;42.00;;;;;7.39;77.95;101879.47;5043139;28;45371;-63
2022/01/19 12:29:38;;;;;;;;;54.50;42.00;;;;;7.45;78.94;101880.31;5042668;28;45434;-62
2022/01/19 12:32:15;;;;;;;;;58.00;44.00;;;;;7.51;78.21;101874.13;5039728;28;45329;-62
2022/01/19 12:34:52;;;;;;;;;50.25;38.00;;;;;7.57;77.98;101862.78;5038945;28;45405;-64
2022/01/19 12:37:26;;;;;;;;;48.00;36.50;;;;;7.60;77.48;101868.84;5039127;28;46200;-64
2022/01/19 12:39:53;;;;;;;;;49.25;39.75;;;;;7.64;78.18;101874.94;5038910;28;45360;-63
2022/01/19 12:42:24;;;;;;;;;41.75;31.75;;;;;7.64;77.69;101863.56;5039024;28;45269;-63
2022/01/19 12:44:58;;;;;;;;;50.25;37.25;;;;;7.67;76.91;101864.44;5040453;28;45452;-65
2022/01/19 12:47:29;;;;;;;;;39.00;31.00;;;;;7.71;77.20;101862.66;5038538;28;45591;-64